createdAt,value
2022-07-29T00:01:42.555Z,5.90
2022-07-29T00:04:10.045Z,5.93
2022-07-29T00:06:37.654Z,6.30
2022-07-29T00:09:05.121Z,6.03
2022-07-29T00:11:32.677Z,6.53
2022-07-29T00:14:00.284Z,5.82
2022-07-29T00:16:27.843Z,6.35
2022-07-29T00:18:55.447Z,6.57
2022-07-29T00:21:22.877Z,6.88
2022-07-29T00:23:50.380Z,6.07
2022-07-29T00:26:17.820Z,6.25
2022-07-29T00:28:45.296Z,6.10
2022-07-29T00:31:12.821Z,6.05
2022-07-29T00:33:40.413Z,6.18
2022-07-29T00:36:07.983Z,5.80
2022-07-29T00:38:35.455Z,6.28
2022-07-29T00:41:03.031Z,6.43
2022-07-29T00:43:30.486Z,6.30
2022-07-29T00:45:57.977Z,6.45
2022-07-29T00:48:25.461Z,6.22
2022-07-29T00:50:53.312Z,6.75
2022-07-29T00:53:21.253Z,6.80
2022-07-29T00:55:49.677Z,6.63
2022-07-29T00:58:19.978Z,9.02
2022-07-29T01:00:47.636Z,6.72
2022-07-29T01:03:15.137Z,6.55
2022-07-29T01:05:50.682Z,6.40
2022-07-29T01:08:19.160Z,6.88
2022-07-29T01:10:48.022Z,8.98
2022-07-29T01:13:16.638Z,6.32
2022-07-29T01:15:49.839Z,8.10
2022-07-29T01:18:24.313Z,7.35
2022-07-29T01:21:17.995Z,6.55
2022-07-29T01:24:01.526Z,6.57
2022-07-29T01:26:39.868Z,6.53
2022-07-29T01:29:26.567Z,8.48
2022-07-29T01:32:05.818Z,7.43
2022-07-29T01:34:53.674Z,8.02
2022-07-29T01:37:27.007Z,6.72
2022-07-29T01:39:56.289Z,6.40
2022-07-29T01:42:32.754Z,6.47
2022-07-29T01:45:00.303Z,6.75
2022-07-29T01:47:33.256Z,6.75
2022-07-29T01:50:05.328Z,7.22
2022-07-29T01:52:36.034Z,6.63
2022-07-29T01:55:06.519Z,5.85
2022-07-29T01:57:35.508Z,6.20
2022-07-29T02:00:04.246Z,6.65
2022-07-29T02:02:40.847Z,6.22
2022-07-29T02:05:09.881Z,6.35
2022-07-29T02:07:38.843Z,6.43
2022-07-29T02:10:07.746Z,12.73
2022-07-29T02:12:36.812Z,6.50
2022-07-29T02:15:06.372Z,5.85
2022-07-29T02:17:45.730Z,6.43
2022-07-29T02:20:14.128Z,7.90
2022-07-29T02:22:42.287Z,6.82
2022-07-29T02:25:14.144Z,6.82
2022-07-29T02:27:43.425Z,6.90
2022-07-29T02:30:11.808Z,7.32
2022-07-29T02:32:41.747Z,8.57
2022-07-29T02:35:10.995Z,8.00
2022-07-29T02:37:39.413Z,11.60
2022-07-29T02:40:07.765Z,8.02
2022-07-29T02:42:36.981Z,7.32
2022-07-29T02:45:04.860Z,6.75
2022-07-29T02:47:41.273Z,6.95
2022-07-29T02:50:45.233Z,6.65
2022-07-29T02:53:24.256Z,9.88
2022-07-29T02:55:57.299Z,6.97
2022-07-29T02:58:32.442Z,6.82
2022-07-29T03:01:03.891Z,7.60
2022-07-29T03:03:33.945Z,7.28
2022-07-29T03:06:02.928Z,7.38
2022-07-29T03:08:31.799Z,7.55
2022-07-29T03:10:59.735Z,7.75
2022-07-29T03:13:27.639Z,7.22
2022-07-29T03:15:55.804Z,7.55
2022-07-29T03:18:23.521Z,7.60
2022-07-29T03:20:51.086Z,7.78
2022-07-29T03:23:23.804Z,6.57
2022-07-29T03:25:51.693Z,7.43
2022-07-29T03:28:19.271Z,7.18
2022-07-29T03:30:46.904Z,7.15
2022-07-29T03:33:15.504Z,7.43
2022-07-29T03:35:43.314Z,7.13
2022-07-29T03:38:10.785Z,7.60
2022-07-29T03:40:51.607Z,7.40
2022-07-29T03:43:20.622Z,7.68
2022-07-29T03:45:49.932Z,7.20
2022-07-29T03:48:19.465Z,7.60
2022-07-29T03:50:47.285Z,7.95
2022-07-29T03:53:15.236Z,8.07
2022-07-29T03:55:43.811Z,8.27
2022-07-29T03:58:13.148Z,7.10
2022-07-29T04:00:41.442Z,9.13
2022-07-29T04:03:10.665Z,8.40
2022-07-29T04:05:39.275Z,7.53
2022-07-29T04:08:07.130Z,7.72
2022-07-29T04:10:35.777Z,8.60
2022-07-29T04:13:03.413Z,9.90
2022-07-29T04:15:31.859Z,8.77
2022-07-29T04:17:59.945Z,9.77
2022-07-29T04:20:27.471Z,7.88
2022-07-29T04:22:55.262Z,7.95
2022-07-29T04:25:22.879Z,8.45
2022-07-29T04:28:02.576Z,8.85
2022-07-29T04:30:30.871Z,9.90
2022-07-29T04:32:58.524Z,8.43
2022-07-29T04:35:26.065Z,8.27
2022-07-29T04:37:53.505Z,7.57
2022-07-29T04:40:21.148Z,8.15
2022-07-29T04:42:49.454Z,8.18
2022-07-29T04:45:22.262Z,8.10
2022-07-29T04:47:50.480Z,7.55
2022-07-29T04:50:17.910Z,6.90
2022-07-29T04:52:45.613Z,6.13
2022-07-29T04:55:13.117Z,7.05
2022-07-29T04:57:40.586Z,6.70
2022-07-29T05:00:08.482Z,6.85
2022-07-29T05:02:36.036Z,6.85
2022-07-29T05:05:03.731Z,6.45
2022-07-29T05:07:31.158Z,6.43
2022-07-29T05:09:58.704Z,6.65
2022-07-29T05:12:26.407Z,5.90
2022-07-29T05:14:54.260Z,6.30
2022-07-29T05:17:21.792Z,6.18
2022-07-29T05:19:49.374Z,6.03
2022-07-29T05:22:16.857Z,5.78
2022-07-29T05:24:44.350Z,5.90
2022-07-29T05:27:11.927Z,6.10
2022-07-29T05:29:43.361Z,5.85
2022-07-29T05:32:12.957Z,5.63
2022-07-29T05:34:50.210Z,5.43
2022-07-29T05:37:20.321Z,5.32
2022-07-29T05:39:50.605Z,5.38
2022-07-29T05:42:24.055Z,5.72
2022-07-29T05:44:51.927Z,5.55
2022-07-29T05:47:19.748Z,5.03
2022-07-29T05:49:47.246Z,7.47
2022-07-29T05:52:14.872Z,6.90
2022-07-29T05:54:42.630Z,5.70
2022-07-29T05:57:10.213Z,5.53
2022-07-29T05:59:38.104Z,5.95
2022-07-29T06:02:08.901Z,5.13
2022-07-29T06:04:36.574Z,5.35
2022-07-29T06:07:04.156Z,6.47
2022-07-29T06:09:32.142Z,5.50
2022-07-29T06:11:59.722Z,4.63
2022-07-29T06:14:30.417Z,4.45
2022-07-29T06:16:57.947Z,4.25
2022-07-29T06:19:25.382Z,4.63
2022-07-29T06:21:52.972Z,4.00
2022-07-29T06:24:20.519Z,4.07
2022-07-29T06:26:48.413Z,4.22
2022-07-29T06:29:15.851Z,4.97
2022-07-29T06:31:43.393Z,4.13
2022-07-29T06:34:11.149Z,3.83
2022-07-29T06:36:39.717Z,4.00
2022-07-29T06:39:09.117Z,4.13
2022-07-29T06:41:36.712Z,4.00
2022-07-29T06:44:10.422Z,3.92
2022-07-29T06:46:38.050Z,3.35
2022-07-29T06:49:06.035Z,3.45
2022-07-29T06:51:33.645Z,3.30
2022-07-29T06:54:03.443Z,3.30
2022-07-29T06:56:39.017Z,3.53
2022-07-29T06:59:11.647Z,3.50
2022-07-29T07:01:40.071Z,3.72
2022-07-29T07:04:09.538Z,3.15
2022-07-29T07:06:37.450Z,4.10
2022-07-29T07:09:05.298Z,3.40
2022-07-29T07:11:32.817Z,3.20
2022-07-29T07:14:14.407Z,3.10
2022-07-29T07:16:42.205Z,3.20
2022-07-29T07:19:09.841Z,3.53
2022-07-29T07:21:37.435Z,3.17
2022-07-29T07:24:05.019Z,2.92
2022-07-29T07:26:33.288Z,2.92
2022-07-29T07:29:01.461Z,2.90
2022-07-29T07:31:29.076Z,3.25
2022-07-29T07:33:56.542Z,3.38
2022-07-29T07:36:24.441Z,2.90
2022-07-29T07:38:51.962Z,3.00
2022-07-29T07:41:19.580Z,2.75
2022-07-29T07:43:47.184Z,3.25
2022-07-29T07:46:14.829Z,2.90
2022-07-29T07:48:42.419Z,3.00
2022-07-29T07:51:10.196Z,2.70
2022-07-29T07:53:37.641Z,3.58
2022-07-29T07:56:10.827Z,3.17
2022-07-29T07:58:39.669Z,2.80
2022-07-29T08:01:07.413Z,3.20
2022-07-29T08:03:35.507Z,2.80
2022-07-29T08:06:03.202Z,3.20
2022-07-29T08:08:31.109Z,5.38
2022-07-29T08:11:02.281Z,2.97
2022-07-29T08:13:33.160Z,3.45
2022-07-29T08:16:02.373Z,3.22
2022-07-29T08:18:31.370Z,3.10
2022-07-29T08:20:59.476Z,2.90
2022-07-29T08:23:31.619Z,3.05
2022-07-29T08:26:13.293Z,3.13
2022-07-29T08:28:41.404Z,3.72
2022-07-29T08:31:09.121Z,3.33
2022-07-29T08:33:36.639Z,3.28
2022-07-29T08:36:04.329Z,3.90
2022-07-29T08:38:31.754Z,3.13
2022-07-29T08:41:00.296Z,3.30
2022-07-29T08:43:27.946Z,2.90
2022-07-29T08:45:55.550Z,3.50
2022-07-29T08:48:23.682Z,4.00
2022-07-29T08:50:57.893Z,3.10
2022-07-29T08:53:27.825Z,3.03
2022-07-29T08:55:55.727Z,3.55
2022-07-29T08:58:25.066Z,3.10
2022-07-29T09:00:55.486Z,3.00
2022-07-29T09:03:27.395Z,2.95
2022-07-29T09:05:55.409Z,3.08
2022-07-29T09:08:23.261Z,3.17
2022-07-29T09:10:51.623Z,3.80
2022-07-29T09:13:19.185Z,3.30
2022-07-29T09:15:46.853Z,3.13
2022-07-29T09:18:20.301Z,3.13
2022-07-29T09:21:17.087Z,3.28
2022-07-29T09:24:01.422Z,3.15
2022-07-29T09:26:37.044Z,2.80
2022-07-29T09:29:12.034Z,3.13
2022-07-29T09:31:41.185Z,3.10
2022-07-29T09:34:09.532Z,3.60
2022-07-29T09:36:44.463Z,3.00
2022-07-29T09:39:12.176Z,3.50
2022-07-29T09:41:49.781Z,4.15
2022-07-29T09:44:17.697Z,3.90
2022-07-29T09:46:59.162Z,3.30
2022-07-29T09:49:27.117Z,4.97
2022-07-29T09:52:01.831Z,3.25
2022-07-29T09:54:35.352Z,2.90
2022-07-29T09:57:02.880Z,3.10
2022-07-29T09:59:30.521Z,2.88
2022-07-29T10:01:58.926Z,3.03
2022-07-29T10:04:38.080Z,3.90
2022-07-29T10:07:06.497Z,2.55
2022-07-29T10:09:34.705Z,3.05
2022-07-29T10:12:10.214Z,2.70
2022-07-29T10:14:38.095Z,3.35
2022-07-29T10:17:06.528Z,3.53
2022-07-29T10:19:34.616Z,2.60
2022-07-29T10:22:03.450Z,2.63
2022-07-29T10:24:32.306Z,2.85
2022-07-29T10:27:01.725Z,2.70
2022-07-29T10:29:29.976Z,2.80
2022-07-29T10:31:57.579Z,2.35
2022-07-29T10:34:34.512Z,2.60
2022-07-29T10:37:20.615Z,2.72
2022-07-29T10:39:49.731Z,2.40
2022-07-29T10:42:20.022Z,2.90
2022-07-29T10:44:48.073Z,3.00
2022-07-29T10:47:41.676Z,4.28
2022-07-29T10:50:15.257Z,3.13
2022-07-29T10:52:51.070Z,2.97
2022-07-29T10:58:05.922Z,3.72
2022-07-29T11:00:34.422Z,3.83
2022-07-29T11:03:04.570Z,3.83
2022-07-29T11:05:55.237Z,3.75
2022-07-29T11:08:26.310Z,2.95
2022-07-29T11:11:15.842Z,3.20
2022-07-29T11:13:46.534Z,2.95
2022-07-29T11:16:16.215Z,2.72
2022-07-29T11:19:03.045Z,3.40
2022-07-29T11:21:55.263Z,4.50
2022-07-29T11:24:34.795Z,3.85
2022-07-29T11:27:13.336Z,3.00
2022-07-29T11:32:37.747Z,5.38
2022-07-29T11:35:19.090Z,4.30
2022-07-29T11:38:19.445Z,5.60
2022-07-29T11:41:08.694Z,4.30
2022-07-29T11:43:54.285Z,3.55
2022-07-29T11:46:40.554Z,3.47
2022-07-29T11:49:10.074Z,2.95
2022-07-29T11:51:56.714Z,2.95
2022-07-29T11:54:32.442Z,3.30
2022-07-29T11:57:00.433Z,3.55
2022-07-29T11:59:33.652Z,3.40
2022-07-29T12:02:33.280Z,3.72
2022-07-29T12:04:55.298Z,3.13
2022-07-29T12:07:34.740Z,3.40
2022-07-29T12:10:04.682Z,2.78
2022-07-29T12:12:34.300Z,2.75
2022-07-29T12:15:22.224Z,2.45
2022-07-29T12:17:50.154Z,2.80
2022-07-29T12:20:24.846Z,2.88
2022-07-29T12:22:54.754Z,3.30
2022-07-29T12:25:38.528Z,3.05
2022-07-29T12:28:07.529Z,3.00
2022-07-29T12:30:49.644Z,2.60
2022-07-29T12:33:27.537Z,3.22
2022-07-29T12:36:06.909Z,4.28
2022-07-29T12:38:36.147Z,3.38
2022-07-29T12:41:04.933Z,2.70
2022-07-29T12:43:32.842Z,3.00
2022-07-29T12:46:12.986Z,3.15
2022-07-29T12:48:42.045Z,2.90
2022-07-29T12:51:11.113Z,2.80
2022-07-29T12:53:39.032Z,2.58
2022-07-29T12:56:20.679Z,2.70
2022-07-29T12:58:55.013Z,2.53
2022-07-29T13:01:22.757Z,2.88
2022-07-29T13:04:05.203Z,2.80
2022-07-29T13:06:39.350Z,3.25
2022-07-29T13:09:08.690Z,2.72
2022-07-29T13:11:39.365Z,3.25
2022-07-29T13:14:07.663Z,2.92
2022-07-29T13:16:35.192Z,3.10
2022-07-29T13:19:10.278Z,3.05
2022-07-29T13:21:38.415Z,2.65
2022-07-29T13:24:06.940Z,2.80
2022-07-29T13:26:34.516Z,3.70
2022-07-29T13:29:02.103Z,3.35
2022-07-29T13:31:29.660Z,2.70
2022-07-29T13:33:57.490Z,2.58
2022-07-29T13:36:25.103Z,2.92
2022-07-29T13:38:52.602Z,3.08
2022-07-29T13:41:20.183Z,3.50
2022-07-29T13:43:47.670Z,2.78
2022-07-29T13:46:17.753Z,3.28
2022-07-29T13:48:45.352Z,2.83
2022-07-29T13:51:12.936Z,3.40
2022-07-29T13:53:41.197Z,2.97
2022-07-29T13:56:08.703Z,3.05
2022-07-29T13:58:36.230Z,3.85
2022-07-29T14:01:03.965Z,3.17
2022-07-29T14:03:31.570Z,2.70
2022-07-29T14:06:01.429Z,2.72
2022-07-29T14:08:29.084Z,3.55
2022-07-29T14:10:56.575Z,3.15
2022-07-29T14:13:25.391Z,3.55
2022-07-29T14:15:54.164Z,4.63
2022-07-29T14:18:21.724Z,3.17
2022-07-29T14:20:49.311Z,3.75
2022-07-29T14:23:16.843Z,3.35
2022-07-29T14:25:47.779Z,3.20
2022-07-29T14:28:17.219Z,4.63
2022-07-29T14:30:44.712Z,4.00
2022-07-29T14:33:12.212Z,3.45
2022-07-29T14:35:40.203Z,3.80
2022-07-29T14:38:07.642Z,4.10
2022-07-29T14:40:35.913Z,3.80
2022-07-29T14:43:03.860Z,3.60
2022-07-29T14:45:31.574Z,4.63
2022-07-29T14:47:59.942Z,4.43
2022-07-29T14:50:32.000Z,4.00
2022-07-29T14:53:00.100Z,3.72
2022-07-29T14:55:27.894Z,4.00
2022-07-29T14:58:04.595Z,3.50
2022-07-29T15:00:36.992Z,3.28
2022-07-29T15:03:04.821Z,3.20
2022-07-29T15:05:33.384Z,6.00
2022-07-29T15:08:01.366Z,4.22
2022-07-29T15:10:29.720Z,4.18
2022-07-29T15:12:57.798Z,3.03
2022-07-29T15:15:25.334Z,3.58
2022-07-29T15:17:53.832Z,3.00
2022-07-29T15:20:22.421Z,3.20
2022-07-29T15:22:52.362Z,5.10
2022-07-29T15:25:20.483Z,2.90
2022-07-29T15:27:52.127Z,3.30
2022-07-29T15:30:33.210Z,3.03
2022-07-29T15:33:10.869Z,3.60
2022-07-29T15:35:40.357Z,3.88
2022-07-29T15:38:11.666Z,3.28
2022-07-29T15:40:42.222Z,3.38
2022-07-29T15:43:09.754Z,4.75
2022-07-29T15:45:43.237Z,3.20
2022-07-29T15:48:13.276Z,3.17
2022-07-29T15:50:42.866Z,3.15
2022-07-29T15:53:14.757Z,3.20
2022-07-29T15:55:47.043Z,4.10
2022-07-29T15:58:14.712Z,3.10
2022-07-29T16:00:42.269Z,3.67
2022-07-29T16:03:10.780Z,3.67
2022-07-29T16:05:39.221Z,3.40
2022-07-29T16:08:12.988Z,3.72
2022-07-29T16:11:11.701Z,3.63
2022-07-29T16:13:39.482Z,3.13
2022-07-29T16:16:07.148Z,3.85
2022-07-29T16:18:42.100Z,3.25
2022-07-29T16:21:09.660Z,3.28
2022-07-29T16:23:37.095Z,3.65
2022-07-29T16:26:04.579Z,3.40
2022-07-29T16:28:33.522Z,5.03
2022-07-29T16:31:01.248Z,3.67
2022-07-29T16:33:29.052Z,4.88
2022-07-29T16:36:18.445Z,4.20
2022-07-29T16:38:58.623Z,6.85
2022-07-29T16:41:29.811Z,3.58
2022-07-29T16:43:57.831Z,3.63
2022-07-29T16:46:37.332Z,2.92
2022-07-29T16:49:06.649Z,3.45
2022-07-29T16:51:34.105Z,2.80
2022-07-29T16:54:01.601Z,3.80
2022-07-29T16:56:29.284Z,3.25
2022-07-29T16:58:58.892Z,3.10
2022-07-29T17:01:26.517Z,4.75
2022-07-29T17:04:06.326Z,3.72
2022-07-29T17:06:35.231Z,3.67
2022-07-29T17:09:03.764Z,3.45
2022-07-29T17:11:51.569Z,3.20
2022-07-29T17:14:23.377Z,3.80
2022-07-29T17:17:00.424Z,4.00
2022-07-29T17:19:33.840Z,3.65
2022-07-29T17:22:19.329Z,5.70
2022-07-29T17:24:47.878Z,8.00
2022-07-29T17:27:15.441Z,5.80
2022-07-29T17:29:43.082Z,13.00
2022-07-29T17:32:11.215Z,13.82
2022-07-29T17:34:42.760Z,15.77
2022-07-29T17:37:11.028Z,24.02
2022-07-29T17:39:40.910Z,21.02
2022-07-29T17:42:09.076Z,21.52
2022-07-29T17:44:36.594Z,24.80
2022-07-29T17:47:04.563Z,26.58
2022-07-29T17:49:32.283Z,24.55
2022-07-29T17:52:01.170Z,35.50
2022-07-29T17:54:28.856Z,28.83
2022-07-29T17:56:56.610Z,22.40
2022-07-29T17:59:24.341Z,25.23
2022-07-29T18:01:51.820Z,11.05
2022-07-29T18:04:21.161Z,14.73
2022-07-29T18:06:48.764Z,27.10
2022-07-29T18:09:16.406Z,7.25
2022-07-29T18:11:45.662Z,6.22
2022-07-29T18:14:13.566Z,5.15
2022-07-29T18:16:41.291Z,12.55
2022-07-29T18:19:08.850Z,38.15
2022-07-29T18:21:43.350Z,38.42
2022-07-29T18:24:22.605Z,17.88
2022-07-29T18:26:50.175Z,47.67
2022-07-29T18:29:17.875Z,59.78
2022-07-29T18:31:45.471Z,43.22
2022-07-29T18:34:13.003Z,16.95
2022-07-29T18:36:40.688Z,42.20
2022-07-29T18:39:08.194Z,37.53
2022-07-29T18:41:36.473Z,40.00
2022-07-29T18:44:17.850Z,27.13
2022-07-29T18:46:47.878Z,28.55
2022-07-29T18:49:15.856Z,16.42
2022-07-29T18:51:43.729Z,21.85
2022-07-29T18:54:11.468Z,40.42
2022-07-29T18:56:39.044Z,43.13
2022-07-29T18:59:06.584Z,13.93
2022-07-29T19:01:34.221Z,20.15
2022-07-29T19:04:02.373Z,42.53
2022-07-29T19:06:29.952Z,17.08
2022-07-29T19:08:57.508Z,15.02
2022-07-29T19:11:25.017Z,8.52
2022-07-29T19:13:52.822Z,8.35
2022-07-29T19:16:20.706Z,5.90
2022-07-29T19:18:48.301Z,6.60
2022-07-29T19:21:15.895Z,5.55
2022-07-29T19:24:01.410Z,6.53
2022-07-29T19:26:33.382Z,6.07
2022-07-29T19:29:00.977Z,6.45
2022-07-29T19:31:28.566Z,6.60
2022-07-29T19:33:56.351Z,6.10
2022-07-29T19:36:28.648Z,8.50
2022-07-29T19:38:56.258Z,6.57
2022-07-29T19:41:23.772Z,6.60
2022-07-29T19:43:53.071Z,6.10
2022-07-29T19:46:24.511Z,6.75
2022-07-29T19:48:53.179Z,5.95
2022-07-29T19:51:20.727Z,5.70
2022-07-29T19:53:48.288Z,5.13
2022-07-29T19:56:15.840Z,5.07
2022-07-29T19:58:45.144Z,5.43
2022-07-29T20:01:12.808Z,5.57
2022-07-29T20:03:40.580Z,4.55
2022-07-29T20:06:08.519Z,4.68
2022-07-29T20:08:36.133Z,4.93
2022-07-29T20:11:03.901Z,5.03
2022-07-29T20:13:33.181Z,4.80
2022-07-29T20:16:01.231Z,5.38
2022-07-29T20:18:28.847Z,4.55
2022-07-29T20:20:57.556Z,4.72
2022-07-29T20:23:25.263Z,4.50
2022-07-29T20:25:52.856Z,4.25
2022-07-29T20:28:22.658Z,4.15
2022-07-29T20:30:50.122Z,4.20
2022-07-29T20:33:17.623Z,4.93
2022-07-29T20:35:45.266Z,4.70
2022-07-29T20:38:17.801Z,4.88
2022-07-29T20:40:45.843Z,5.60
2022-07-29T20:43:13.295Z,4.55
2022-07-29T20:45:40.795Z,4.13
2022-07-29T20:48:08.645Z,4.85
2022-07-29T20:50:36.242Z,4.72
2022-07-29T20:53:03.807Z,4.95
2022-07-29T20:55:32.169Z,4.80
2022-07-29T20:57:59.731Z,4.63
2022-07-29T21:00:28.520Z,4.22
2022-07-29T21:02:56.012Z,5.22
2022-07-29T21:05:23.682Z,5.00
2022-07-29T21:07:54.375Z,4.72
2022-07-29T21:10:25.784Z,5.03
2022-07-29T21:12:53.350Z,5.03
2022-07-29T21:15:21.857Z,5.50
2022-07-29T21:17:49.438Z,4.40
2022-07-29T21:20:18.070Z,4.65
2022-07-29T21:22:45.874Z,4.25
2022-07-29T21:25:13.486Z,4.07
2022-07-29T21:27:59.300Z,4.35
2022-07-29T21:30:26.785Z,3.72
2022-07-29T21:32:54.379Z,4.05
2022-07-29T21:36:01.733Z,4.00
2022-07-29T21:38:12.570Z,4.05
2022-07-29T21:40:40.083Z,4.32
2022-07-29T21:43:07.519Z,4.35
2022-07-29T21:45:35.084Z,4.28
2022-07-29T21:48:02.536Z,4.10
2022-07-29T21:50:30.069Z,4.57
2022-07-29T21:52:57.585Z,4.72
2022-07-29T21:55:29.761Z,4.35
2022-07-29T21:57:59.961Z,4.60
2022-07-29T22:00:28.790Z,4.03
2022-07-29T22:02:56.269Z,4.53
2022-07-29T22:05:24.174Z,4.82
2022-07-29T22:07:56.401Z,4.00
2022-07-29T22:10:25.155Z,4.38
2022-07-29T22:12:55.922Z,4.70
2022-07-29T22:15:23.871Z,4.22
2022-07-29T22:17:51.631Z,4.75
2022-07-29T22:20:19.412Z,5.13
2022-07-29T22:22:47.089Z,4.90
2022-07-29T22:25:14.640Z,5.18
2022-07-29T22:27:42.243Z,4.10
2022-07-29T22:30:10.063Z,4.72
2022-07-29T22:32:37.713Z,4.57
2022-07-29T22:35:05.435Z,4.50
2022-07-29T22:37:33.303Z,4.60
2022-07-29T22:40:00.929Z,4.57
2022-07-29T22:42:28.463Z,4.82
2022-07-29T22:44:56.027Z,4.18
2022-07-29T22:47:38.974Z,3.92
2022-07-29T22:50:11.189Z,4.63
2022-07-29T22:52:38.650Z,4.50
2022-07-29T22:55:06.438Z,4.53
2022-07-29T22:57:33.886Z,4.30
2022-07-29T23:00:02.437Z,4.88
2022-07-29T23:02:30.255Z,4.20
2022-07-29T23:04:58.020Z,4.70
2022-07-29T23:07:25.492Z,4.55
2022-07-29T23:09:52.992Z,4.32
2022-07-29T23:12:20.550Z,3.72
2022-07-29T23:14:47.993Z,4.03
2022-07-29T23:17:15.573Z,3.45
2022-07-29T23:19:43.355Z,4.10
2022-07-29T23:22:12.230Z,4.00
2022-07-29T23:24:39.727Z,4.93
2022-07-29T23:27:08.550Z,4.95
2022-07-29T23:29:36.856Z,4.63
2022-07-29T23:32:04.547Z,4.47
2022-07-29T23:34:32.057Z,4.78
2022-07-29T23:36:59.752Z,4.97
2022-07-29T23:39:27.519Z,4.72
2022-07-29T23:41:54.976Z,5.15
2022-07-29T23:44:22.656Z,4.18
2022-07-29T23:46:50.329Z,4.22
2022-07-29T23:49:17.947Z,5.60
2022-07-29T23:51:45.469Z,4.68
2022-07-29T23:54:12.998Z,4.57
2022-07-29T23:56:40.418Z,5.13
2022-07-29T23:59:07.925Z,5.70
